createdAt,value
2023-05-03T00:00:35.123Z,101941.28
2023-05-03T00:03:04.812Z,101940.81
2023-05-03T00:05:32.707Z,101944.56
2023-05-03T00:08:00.836Z,101936.38
2023-05-03T00:10:30.330Z,101936.16
2023-05-03T00:12:58.139Z,101937.78
2023-05-03T00:15:27.090Z,101915.69
2023-05-03T00:17:57.854Z,101928.63
2023-05-03T00:20:26.427Z,101926.09
2023-05-03T00:22:54.184Z,101918.56
2023-05-03T00:25:21.911Z,101917.06
2023-05-03T00:27:50.969Z,101915.38
2023-05-03T00:30:19.531Z,101920.66
2023-05-03T00:32:47.552Z,101925.06
2023-05-03T00:35:15.327Z,101918.53
2023-05-03T00:37:43.081Z,101920.31
2023-05-03T00:40:11.361Z,101915.22
2023-05-03T00:42:39.148Z,101914.97
2023-05-03T00:45:09.234Z,101924.91
2023-05-03T00:47:37.893Z,101928.69
2023-05-03T00:50:07.285Z,101932.09
2023-05-03T00:52:35.700Z,101930.38
2023-05-03T00:55:03.541Z,101933.19
2023-05-03T00:57:31.961Z,101927.94
2023-05-03T00:59:59.949Z,101928.44
2023-05-03T01:02:30.470Z,101931.41
2023-05-03T01:04:58.439Z,101928.09
2023-05-03T01:07:35.720Z,101925.47
2023-05-03T01:10:13.743Z,101922.16
2023-05-03T01:12:53.686Z,101923.94
2023-05-03T01:15:37.285Z,101921.91
2023-05-03T01:18:12.497Z,101915.63
2023-05-03T01:20:44.778Z,101904.09
2023-05-03T01:23:20.325Z,101916.72
2023-05-03T01:25:53.162Z,101911.47
2023-05-03T01:28:21.480Z,101892.38
2023-05-03T01:30:53.263Z,101921.59
2023-05-03T01:33:34.564Z,101916.34
2023-05-03T01:36:10.175Z,101916.59
2023-05-03T01:38:38.904Z,101915.81
2023-05-03T01:41:12.625Z,101917.53
2023-05-03T01:43:41.654Z,101919.56
2023-05-03T01:46:09.526Z,101916.75
2023-05-03T01:48:37.329Z,101912.50
2023-05-03T01:51:05.941Z,101926.59
2023-05-03T01:53:33.703Z,101920.41
2023-05-03T01:56:01.509Z,101925.75
2023-05-03T01:58:30.568Z,101930.00
2023-05-03T02:00:58.382Z,101932.81
2023-05-03T02:03:26.140Z,101929.31
2023-05-03T02:05:54.111Z,101944.47
2023-05-03T02:08:21.972Z,101940.28
2023-05-03T02:10:49.735Z,101927.63
2023-05-03T02:13:17.548Z,101938.25
2023-05-03T02:15:50.284Z,101937.66
2023-05-03T02:18:18.443Z,101943.88
2023-05-03T02:20:46.616Z,101935.63
2023-05-03T02:23:14.852Z,101931.69
2023-05-03T02:25:42.906Z,101938.34
2023-05-03T02:28:10.727Z,101953.38
2023-05-03T02:30:38.584Z,101952.00
2023-05-03T02:33:07.783Z,101953.28
2023-05-03T02:35:37.156Z,101956.09
2023-05-03T02:38:04.894Z,101963.06
2023-05-03T02:40:32.755Z,101964.91
2023-05-03T02:43:00.860Z,101970.88
2023-05-03T02:45:30.841Z,101967.56
2023-05-03T02:47:59.078Z,101972.41
2023-05-03T02:50:29.498Z,101959.97
2023-05-03T02:52:57.321Z,101967.22
2023-05-03T02:55:25.161Z,101966.44
2023-05-03T02:57:53.059Z,101960.31
2023-05-03T03:00:21.847Z,101961.50
2023-05-03T03:02:50.085Z,101929.72
2023-05-03T03:05:17.922Z,101956.06
2023-05-03T03:07:51.236Z,101950.34
2023-05-03T03:10:19.298Z,101951.31
2023-05-03T03:12:47.541Z,101946.38
2023-05-03T03:15:23.976Z,101942.97
2023-05-03T03:17:52.238Z,101950.06
2023-05-03T03:20:20.244Z,101935.13
2023-05-03T03:22:49.234Z,101937.28
2023-05-03T03:25:18.343Z,101938.13
2023-05-03T03:27:46.082Z,101941.75
2023-05-03T03:30:14.309Z,101932.31
2023-05-03T03:32:53.697Z,101937.75
2023-05-03T03:35:28.831Z,101932.63
2023-05-03T03:37:56.870Z,101923.22
2023-05-03T03:40:26.836Z,101921.03
2023-05-03T03:42:56.750Z,101922.03
2023-05-03T03:45:24.601Z,101926.72
2023-05-03T03:47:53.759Z,101920.66
2023-05-03T03:50:23.670Z,101922.53
2023-05-03T03:52:51.424Z,101918.44
2023-05-03T03:55:19.388Z,101918.59
2023-05-03T03:57:50.975Z,101923.69
2023-05-03T04:00:19.449Z,101924.63
2023-05-03T04:02:53.129Z,101915.03
2023-05-03T04:05:21.304Z,101922.84
2023-05-03T04:07:49.486Z,101915.22
2023-05-03T04:10:18.306Z,101914.19
2023-05-03T04:12:46.096Z,101917.84
2023-05-03T04:15:19.880Z,101915.38
2023-05-03T04:17:48.397Z,101906.41
2023-05-03T04:20:18.134Z,101902.91
2023-05-03T04:22:50.595Z,101902.66
2023-05-03T04:25:20.683Z,101896.47
2023-05-03T04:27:56.125Z,101896.22
2023-05-03T04:30:26.434Z,101890.81
2023-05-03T04:32:58.470Z,101887.66
2023-05-03T04:35:28.736Z,101898.78
2023-05-03T04:37:57.997Z,101900.03
2023-05-03T04:40:27.865Z,101899.78
2023-05-03T04:43:05.357Z,101905.47
2023-05-03T04:45:38.383Z,101915.69
2023-05-03T04:48:09.353Z,101913.75
2023-05-03T04:50:37.667Z,101925.97
2023-05-03T04:53:08.463Z,101929.34
2023-05-03T04:55:40.168Z,101934.19
2023-05-03T04:58:07.988Z,101937.66
2023-05-03T05:00:38.888Z,101943.53
2023-05-03T05:03:13.235Z,101941.59
2023-05-03T05:05:41.068Z,101947.59
2023-05-03T05:08:12.010Z,101938.78
2023-05-03T05:10:45.128Z,101947.28
2023-05-03T05:13:17.367Z,101938.53
2023-05-03T05:15:46.609Z,101944.81
2023-05-03T05:18:14.997Z,101941.88
2023-05-03T05:20:43.122Z,101942.97
2023-05-03T05:23:11.191Z,101938.38
2023-05-03T05:25:42.699Z,101945.94
2023-05-03T05:28:11.214Z,101944.34
2023-05-03T05:30:40.057Z,101946.78
2023-05-03T05:33:09.811Z,101940.66
2023-05-03T05:35:38.503Z,101961.50
2023-05-03T05:38:06.421Z,101961.94
2023-05-03T05:40:35.794Z,101973.41
2023-05-03T05:43:03.632Z,101970.50
2023-05-03T05:45:35.927Z,101980.19
2023-05-03T05:48:05.547Z,101981.56
2023-05-03T05:50:36.552Z,101981.56
2023-05-03T05:53:10.142Z,101979.53
2023-05-03T05:55:41.835Z,101986.31
2023-05-03T05:58:12.021Z,101987.38
2023-05-03T06:00:45.226Z,101967.31
2023-05-03T06:03:13.491Z,101971.13
2023-05-03T06:05:42.831Z,101977.00
2023-05-03T06:08:11.643Z,101982.75
2023-05-03T06:10:39.979Z,101974.00
2023-05-03T06:13:07.765Z,101985.47
2023-05-03T06:15:36.268Z,101999.78
2023-05-03T06:18:04.622Z,101992.28
2023-05-03T06:20:32.538Z,102003.59
2023-05-03T06:23:02.211Z,102002.66
2023-05-03T06:25:30.014Z,101996.69
2023-05-03T06:27:58.204Z,101999.34
2023-05-03T06:30:31.135Z,101951.16
2023-05-03T06:33:05.262Z,101996.84
2023-05-03T06:35:33.436Z,101995.66
2023-05-03T06:38:02.575Z,101994.34
2023-05-03T06:40:30.378Z,101983.72
2023-05-03T06:42:58.102Z,102002.63
2023-05-03T06:45:46.112Z,101997.00
2023-05-03T06:48:13.892Z,101999.38
2023-05-03T06:50:41.795Z,102000.06
2023-05-03T06:53:11.061Z,102005.31
2023-05-03T06:55:38.782Z,102000.34
2023-05-03T06:58:10.036Z,102004.25
2023-05-03T07:00:39.123Z,102003.31
2023-05-03T07:03:07.170Z,101995.78
2023-05-03T07:05:35.233Z,102005.22
2023-05-03T07:08:03.653Z,102005.69
2023-05-03T07:10:32.804Z,102001.84
2023-05-03T07:13:00.535Z,101998.44
2023-05-03T07:15:28.250Z,101993.91
2023-05-03T07:17:56.052Z,102002.22
2023-05-03T07:20:23.833Z,101999.31
2023-05-03T07:22:51.618Z,101999.31
2023-05-03T07:25:19.472Z,101999.97
2023-05-03T07:27:48.611Z,101998.94
2023-05-03T07:30:16.436Z,101999.78
2023-05-03T07:32:44.210Z,102006.38
2023-05-03T07:35:12.145Z,101996.66
2023-05-03T07:37:39.925Z,101983.19
2023-05-03T07:40:09.718Z,101980.38
2023-05-03T07:42:37.463Z,101975.09
2023-05-03T07:45:07.990Z,101978.75
2023-05-03T07:47:38.116Z,101961.78
2023-05-03T07:50:07.381Z,101983.94
2023-05-03T07:52:37.399Z,101979.41
2023-05-03T07:55:06.769Z,101962.63
2023-05-03T07:57:34.591Z,101969.19
2023-05-03T08:00:02.562Z,101972.59
2023-05-03T08:02:42.184Z,101962.03
2023-05-03T08:05:14.567Z,101960.13
2023-05-03T08:07:42.770Z,101955.50
2023-05-03T08:10:11.495Z,101962.19
2023-05-03T08:12:39.400Z,101957.66
2023-05-03T08:15:08.562Z,101964.63
2023-05-03T08:17:42.845Z,101962.50
2023-05-03T08:20:11.939Z,101959.44
2023-05-03T08:22:41.333Z,101967.75
2023-05-03T08:25:09.997Z,101972.72
2023-05-03T08:27:38.310Z,101979.50
2023-05-03T08:30:07.778Z,101965.53
2023-05-03T08:32:35.633Z,101959.88
2023-05-03T08:35:06.983Z,101954.22
2023-05-03T08:37:39.980Z,101959.28
2023-05-03T08:40:10.166Z,101947.47
2023-05-03T08:42:41.169Z,101953.22
2023-05-03T08:45:11.313Z,101927.38
2023-05-03T08:47:40.723Z,101950.81
2023-05-03T08:50:12.081Z,101948.81
2023-05-03T08:52:42.543Z,101947.22
2023-05-03T08:55:12.028Z,101944.16
2023-05-03T08:57:41.108Z,101941.22
2023-05-03T09:00:10.964Z,101938.00
2023-05-03T09:02:39.948Z,101924.78
2023-05-03T09:05:33.952Z,101940.81
2023-05-03T09:08:03.569Z,101942.06
2023-05-03T09:10:31.482Z,101938.47
2023-05-03T09:13:00.999Z,101922.09
2023-05-03T09:15:29.643Z,101936.47
2023-05-03T09:18:15.520Z,101939.34
2023-05-03T09:20:51.458Z,101938.94
2023-05-03T09:23:21.128Z,101932.38
2023-05-03T09:25:51.335Z,101934.06
2023-05-03T09:28:20.585Z,101924.31
2023-05-03T09:30:49.253Z,101927.31
2023-05-03T09:33:21.382Z,101926.34
2023-05-03T09:36:02.646Z,101922.09
2023-05-03T09:38:31.991Z,101897.44
2023-05-03T09:40:59.857Z,101918.16
2023-05-03T09:43:27.680Z,101919.03
2023-05-03T09:46:09.368Z,101910.97
2023-05-03T09:48:37.911Z,101911.84
2023-05-03T09:51:08.076Z,101908.84
2023-05-03T09:53:36.904Z,101880.28
2023-05-03T09:56:06.107Z,101912.44
2023-05-03T09:58:35.175Z,101909.88
2023-05-03T10:01:03.456Z,101907.75
2023-05-03T10:03:39.197Z,101903.09
2023-05-03T10:06:20.758Z,101889.94
2023-05-03T10:08:52.191Z,101892.59
2023-05-03T10:11:20.998Z,101892.84
2023-05-03T10:13:48.773Z,101889.31
2023-05-03T10:16:22.400Z,101884.00
2023-05-03T10:18:55.576Z,101879.94
2023-05-03T10:21:34.508Z,101878.03
2023-05-03T10:24:13.699Z,101876.84
2023-05-03T10:26:42.442Z,101868.69
2023-05-03T10:29:48.892Z,101866.63
2023-05-03T10:32:30.641Z,101871.31
2023-05-03T10:35:00.716Z,101873.13
2023-05-03T10:37:34.527Z,101871.63
2023-05-03T10:40:11.509Z,101865.66
2023-05-03T10:42:40.120Z,101864.91
2023-05-03T10:45:09.930Z,101869.50
2023-05-03T10:47:37.900Z,101876.09
2023-05-03T10:50:28.091Z,101876.22
2023-05-03T10:52:57.391Z,101869.91
2023-05-03T10:55:28.174Z,101865.88
2023-05-03T10:57:58.676Z,101864.47
2023-05-03T11:00:32.497Z,101870.75
2023-05-03T11:03:12.156Z,101872.00
2023-05-03T11:05:40.316Z,101868.34
2023-05-03T11:08:13.897Z,101868.06
2023-05-03T11:10:42.224Z,101871.78
2023-05-03T11:13:09.991Z,101858.69
2023-05-03T11:15:37.783Z,101861.66
2023-05-03T11:18:07.138Z,101857.03
2023-05-03T11:20:35.014Z,101848.06
2023-05-03T11:23:03.859Z,101850.13
2023-05-03T11:25:33.529Z,101848.00
2023-05-03T11:28:01.502Z,101856.66
2023-05-03T11:30:29.778Z,101855.28
2023-05-03T11:32:57.690Z,101850.16
2023-05-03T11:35:26.988Z,101839.16
2023-05-03T11:37:54.840Z,101836.25
2023-05-03T11:40:22.543Z,101840.94
2023-05-03T11:42:56.028Z,101839.22
2023-05-03T11:45:25.681Z,101836.84
2023-05-03T11:47:54.682Z,101841.41
2023-05-03T11:50:29.428Z,101831.75
2023-05-03T11:52:57.420Z,101834.94
2023-05-03T11:55:25.169Z,101836.47
2023-05-03T11:57:54.310Z,101830.13
2023-05-03T12:00:22.710Z,101831.63
2023-05-03T12:02:51.136Z,101838.16
2023-05-03T12:05:20.016Z,101834.41
2023-05-03T12:07:50.092Z,101830.41
2023-05-03T12:10:23.098Z,101825.34
2023-05-03T12:13:00.243Z,101826.44
2023-05-03T12:15:30.378Z,101825.72
2023-05-03T12:18:00.207Z,101801.13
2023-05-03T12:23:04.252Z,101818.38
2023-05-03T12:25:34.345Z,101814.78
2023-05-03T12:30:37.095Z,101819.75
2023-05-03T12:33:10.172Z,101810.06
2023-05-03T12:35:40.959Z,101798.44
2023-05-03T12:38:10.317Z,101802.31
2023-05-03T12:40:39.499Z,101803.16
2023-05-03T12:43:08.942Z,101798.19
2023-05-03T12:45:40.112Z,101792.16
2023-05-03T12:48:09.212Z,101796.69
2023-05-03T12:50:39.362Z,101788.69
2023-05-03T12:53:09.699Z,101785.56
2023-05-03T12:55:43.430Z,101778.59
2023-05-03T12:58:46.301Z,101776.94
2023-05-03T13:03:34.143Z,101764.97
2023-05-03T13:06:12.740Z,101762.69
2023-05-03T13:08:49.622Z,101735.78
2023-05-03T13:11:19.177Z,101757.88
2023-05-03T13:13:48.819Z,101752.06
2023-05-03T13:16:16.677Z,101747.06
2023-05-03T13:18:45.465Z,101731.09
2023-05-03T13:21:13.576Z,101743.13
2023-05-03T13:23:41.488Z,101731.03
2023-05-03T13:26:09.287Z,101731.63
2023-05-03T13:28:37.055Z,101722.22
2023-05-03T13:31:06.293Z,101721.69
2023-05-03T13:33:37.928Z,101716.28
2023-05-03T13:36:06.052Z,101714.66
2023-05-03T13:38:33.911Z,101722.03
2023-05-03T13:41:02.367Z,101724.66
2023-05-03T13:43:33.448Z,101723.09
2023-05-03T13:46:01.929Z,101717.34
2023-05-03T13:48:32.623Z,101703.84
2023-05-03T13:51:00.596Z,101710.75
2023-05-03T13:53:28.441Z,101695.28
2023-05-03T13:55:56.532Z,101685.31
2023-05-03T13:58:24.301Z,101680.69
2023-05-03T14:00:52.245Z,101653.91
2023-05-03T14:03:21.795Z,101675.72
2023-05-03T14:05:51.029Z,101669.97
2023-05-03T14:08:18.929Z,101671.94
2023-05-03T14:10:46.671Z,101658.34
2023-05-03T14:13:14.626Z,101651.53
2023-05-03T14:15:43.958Z,101639.06
2023-05-03T14:18:14.346Z,101645.78
2023-05-03T14:20:42.347Z,101635.72
2023-05-03T14:23:11.441Z,101633.69
2023-05-03T14:25:39.300Z,101631.72
2023-05-03T14:28:07.086Z,101621.03
2023-05-03T14:30:35.024Z,101619.56
2023-05-03T14:33:02.889Z,101620.50
2023-05-03T14:35:30.618Z,101617.72
2023-05-03T14:37:58.762Z,101612.41
2023-05-03T14:40:28.027Z,101608.44
2023-05-03T14:42:55.757Z,101606.75
2023-05-03T14:45:23.543Z,101583.72
2023-05-03T14:47:53.358Z,101594.13
2023-05-03T14:50:21.213Z,101594.38
2023-05-03T14:52:49.051Z,101593.00
2023-05-03T14:55:17.280Z,101585.59
2023-05-03T14:57:46.533Z,101590.41
2023-05-03T15:00:17.621Z,101583.59
2023-05-03T15:02:46.678Z,101587.00
2023-05-03T15:05:25.409Z,101579.88
2023-05-03T15:07:55.266Z,101579.94
2023-05-03T15:10:23.246Z,101579.00
2023-05-03T15:12:52.304Z,101574.84
2023-05-03T15:15:20.185Z,101573.59
2023-05-03T15:17:48.245Z,101569.06
2023-05-03T15:20:16.654Z,101566.09
2023-05-03T15:22:44.473Z,101557.56
2023-05-03T15:25:12.395Z,101560.00
2023-05-03T15:27:40.186Z,101556.50
2023-05-03T15:30:12.289Z,101554.34
2023-05-03T15:32:40.283Z,101557.03
2023-05-03T15:35:08.422Z,101562.47
2023-05-03T15:37:37.907Z,101560.13
2023-05-03T15:40:09.216Z,101558.47
2023-05-03T15:42:37.081Z,101566.75
2023-05-03T15:45:06.068Z,101552.13
2023-05-03T15:47:35.660Z,101566.56
2023-05-03T15:50:04.019Z,101565.91
2023-05-03T15:52:32.030Z,101556.69
2023-05-03T15:54:59.786Z,101558.03
2023-05-03T15:57:28.084Z,101548.44
2023-05-03T15:59:56.680Z,101550.47
2023-05-03T16:02:24.632Z,101556.16
2023-05-03T16:04:53.828Z,101552.06
2023-05-03T16:07:21.675Z,101548.03
2023-05-03T16:09:49.608Z,101547.69
2023-05-03T16:12:17.373Z,101543.28
2023-05-03T16:14:45.166Z,101527.53
2023-05-03T16:17:12.961Z,101530.50
2023-05-03T16:19:40.653Z,101532.91
2023-05-03T16:22:09.749Z,101531.53
2023-05-03T16:24:37.541Z,101520.00
2023-05-03T16:27:05.503Z,101508.09
2023-05-03T16:29:34.457Z,101528.84
2023-05-03T16:32:02.200Z,101520.59
2023-05-03T16:34:30.013Z,101523.09
2023-05-03T16:36:57.719Z,101519.41
2023-05-03T16:39:26.886Z,101515.81
2023-05-03T16:41:54.580Z,101514.63
2023-05-03T16:44:22.336Z,101503.75
2023-05-03T16:46:51.122Z,101516.66
2023-05-03T16:49:19.363Z,101506.78
2023-05-03T16:51:47.178Z,101509.44
2023-05-03T16:54:16.863Z,101491.53
2023-05-03T16:56:46.331Z,101502.44
2023-05-03T16:59:17.034Z,101473.84
2023-05-03T17:01:45.603Z,101494.75
2023-05-03T17:04:14.151Z,101501.19
2023-05-03T17:06:42.159Z,101501.41
2023-05-03T17:09:10.432Z,101494.53
2023-05-03T17:11:38.181Z,101498.94
2023-05-03T17:14:07.310Z,101493.38
2023-05-03T17:16:35.164Z,101486.88
2023-05-03T17:19:02.939Z,101487.94
2023-05-03T17:21:31.427Z,101489.13
2023-05-03T17:23:59.096Z,101476.25
2023-05-03T17:26:26.902Z,101479.91
2023-05-03T17:28:54.613Z,101477.22
2023-05-03T17:31:23.729Z,101478.56
2023-05-03T17:33:52.054Z,101473.69
2023-05-03T17:36:22.053Z,101457.38
2023-05-03T17:38:50.116Z,101476.13
2023-05-03T17:41:17.887Z,101478.09
2023-05-03T17:43:45.613Z,101481.38
2023-05-03T17:46:15.002Z,101479.69
2023-05-03T17:48:44.394Z,101481.63
2023-05-03T17:51:13.540Z,101481.44
2023-05-03T17:53:43.438Z,101479.22
2023-05-03T17:56:16.220Z,101479.31
2023-05-03T17:58:44.776Z,101477.44
2023-05-03T18:01:15.997Z,101480.06
2023-05-03T18:03:45.461Z,101480.69
2023-05-03T18:06:14.566Z,101478.81
2023-05-03T18:08:42.559Z,101481.94
2023-05-03T18:11:10.355Z,101488.03
2023-05-03T18:13:38.136Z,101483.16
2023-05-03T18:16:08.973Z,101486.91
2023-05-03T18:18:37.295Z,101482.81
2023-05-03T18:21:07.165Z,101483.28
2023-05-03T18:23:35.213Z,101485.56
2023-05-03T18:26:05.474Z,101476.78
2023-05-03T18:28:33.151Z,101483.28
2023-05-03T18:31:00.910Z,101482.06
2023-05-03T18:33:28.671Z,101457.19
2023-05-03T18:35:57.019Z,101475.56
2023-05-03T18:38:29.587Z,101462.66
2023-05-03T18:40:57.461Z,101489.81
2023-05-03T18:43:25.224Z,101493.94
2023-05-03T18:45:53.280Z,101494.38
2023-05-03T18:48:21.006Z,101486.91
2023-05-03T18:50:49.214Z,101458.72
2023-05-03T18:53:16.918Z,101484.53
2023-05-03T18:55:46.198Z,101490.16
2023-05-03T18:58:13.912Z,101497.19
2023-05-03T19:00:41.721Z,101493.84
2023-05-03T19:03:09.884Z,101488.81
2023-05-03T19:05:37.683Z,101484.66
2023-05-03T19:08:05.752Z,101472.31
2023-05-03T19:10:33.485Z,101497.16
2023-05-03T19:13:03.310Z,101490.28
2023-05-03T19:15:31.181Z,101496.47
2023-05-03T19:17:58.965Z,101488.09
2023-05-03T19:20:26.883Z,101496.06
2023-05-03T19:22:54.647Z,101490.88
2023-05-03T19:25:22.491Z,101481.91
2023-05-03T19:27:50.856Z,101489.53
2023-05-03T19:30:20.351Z,101491.75
2023-05-03T19:32:51.008Z,101463.44
2023-05-03T19:35:18.968Z,101494.28
2023-05-03T19:37:46.723Z,101500.63
2023-05-03T19:40:14.963Z,101497.94
2023-05-03T19:42:42.793Z,101499.34
2023-05-03T19:45:11.399Z,101494.31
2023-05-03T19:47:40.508Z,101501.47
2023-05-03T19:50:08.712Z,101486.59
2023-05-03T19:52:36.510Z,101491.50
2023-05-03T19:55:07.097Z,101493.44
2023-05-03T19:57:34.979Z,101494.03
2023-05-03T20:00:04.744Z,101486.19
2023-05-03T20:02:33.055Z,101490.53
2023-05-03T20:05:02.204Z,101488.13
2023-05-03T20:07:30.122Z,101490.34
2023-05-03T20:09:58.029Z,101491.34
2023-05-03T20:12:26.805Z,101486.44
2023-05-03T20:14:54.640Z,101494.00
2023-05-03T20:17:22.493Z,101488.69
2023-05-03T20:19:50.703Z,101492.56
2023-05-03T20:22:19.866Z,101490.34
2023-05-03T20:24:47.574Z,101489.34
2023-05-03T20:27:15.332Z,101484.31
2023-05-03T20:29:43.652Z,101481.78
2023-05-03T20:32:11.526Z,101486.13
2023-05-03T20:34:40.181Z,101478.44
2023-05-03T20:37:08.290Z,101457.50
2023-05-03T20:39:37.800Z,101475.19
2023-05-03T20:42:05.845Z,101483.03
2023-05-03T20:44:33.569Z,101477.72
2023-05-03T20:47:01.284Z,101478.66
2023-05-03T20:49:30.037Z,101478.22
2023-05-03T20:51:57.795Z,101479.91
2023-05-03T20:54:26.106Z,101480.16
2023-05-03T20:56:55.912Z,101481.69
2023-05-03T20:59:23.678Z,101487.72
2023-05-03T21:01:52.258Z,101484.34
2023-05-03T21:04:20.089Z,101474.25
2023-05-03T21:06:47.816Z,101472.56
2023-05-03T21:09:15.519Z,101463.47
2023-05-03T21:11:43.257Z,101474.63
2023-05-03T21:14:13.615Z,101473.63
2023-05-03T21:16:41.354Z,101467.63
2023-05-03T21:19:09.111Z,101464.94
2023-05-03T21:21:36.851Z,101463.13
2023-05-03T21:24:04.782Z,101465.47
2023-05-03T21:26:32.580Z,101470.50
2023-05-03T21:29:00.579Z,101467.97
2023-05-03T21:31:29.809Z,101466.88
2023-05-03T21:33:58.136Z,101464.59
2023-05-03T21:36:25.910Z,101456.75
2023-05-03T21:38:53.690Z,101461.22
2023-05-03T21:41:21.455Z,101450.31
2023-05-03T21:43:50.739Z,101453.09
2023-05-03T21:46:18.534Z,101454.47
2023-05-03T21:48:47.767Z,101443.97
2023-05-03T21:51:19.391Z,101438.22
2023-05-03T21:53:47.387Z,101438.75
2023-05-03T21:56:15.283Z,101435.91
2023-05-03T21:58:45.229Z,101434.41
2023-05-03T22:01:13.288Z,101430.22
2023-05-03T22:03:41.348Z,101424.72
2023-05-03T22:06:10.817Z,101428.97
2023-05-03T22:08:38.680Z,101428.25
2023-05-03T22:11:07.818Z,101412.31
2023-05-03T22:13:43.185Z,101436.06
2023-05-03T22:16:19.290Z,101436.56
2023-05-03T22:18:47.078Z,101434.44
2023-05-03T22:21:16.554Z,101435.53
2023-05-03T22:23:44.278Z,101436.50
2023-05-03T22:26:12.481Z,101433.13
2023-05-03T22:28:40.198Z,101435.06
2023-05-03T22:31:07.917Z,101423.78
2023-05-03T22:33:35.584Z,101430.03
2023-05-03T22:36:03.289Z,101432.25
2023-05-03T22:38:32.359Z,101432.75
2023-05-03T22:41:00.116Z,101433.72
2023-05-03T22:43:27.798Z,101430.34
2023-05-03T22:45:55.893Z,101436.59
2023-05-03T22:48:23.638Z,101433.22
2023-05-03T22:50:51.591Z,101424.03
2023-05-03T22:53:19.701Z,101433.25
2023-05-03T22:55:56.084Z,101428.72
2023-05-03T22:58:24.045Z,101429.44
2023-05-03T23:00:52.574Z,101432.69
2023-05-03T23:03:20.499Z,101434.75
2023-05-03T23:05:49.274Z,101431.88
2023-05-03T23:08:17.004Z,101427.41
2023-05-03T23:10:44.726Z,101413.19
2023-05-03T23:13:14.272Z,101417.06
2023-05-03T23:15:42.215Z,101419.59
2023-05-03T23:18:10.019Z,101415.97
2023-05-03T23:20:37.804Z,101415.25
2023-05-03T23:23:05.601Z,101414.41
2023-05-03T23:25:33.590Z,101413.81
2023-05-03T23:28:01.357Z,101418.13
2023-05-03T23:30:30.795Z,101409.22
2023-05-03T23:32:59.086Z,101408.13
2023-05-03T23:35:27.336Z,101406.69
2023-05-03T23:37:55.128Z,101402.25
2023-05-03T23:40:22.803Z,101402.25
2023-05-03T23:42:50.476Z,101399.22
2023-05-03T23:45:18.480Z,101398.88
2023-05-03T23:47:47.513Z,101397.66
2023-05-03T23:50:15.268Z,101385.88
2023-05-03T23:52:43.224Z,101380.94
2023-05-03T23:55:11.555Z,101393.09
2023-05-03T23:57:39.467Z,101388.03
